タヒチ島 の空港の天気 - METARとTAF

タヒチ・ファアア国際空港 ( NTAA / PPT ) - フランス領ポリネシア タヒチ島
飛行場実況気象(Metar)
観測時間08/10 21:30 TAHT (08/11 07:30 UTC)
風向・風速不定 1m/s
視程10km以上
天気現象
少しの雲 雲底高度 610m
全天の4割程度の雲 雲底高度 1220m
全天の8割程度の雲 雲底高度 1830m
気温26℃
湿度79%
気圧1015hPa
METARNTAA 110730Z VRB02KT 9999 FEW020 SCT040 BKN060 26/22 Q1015 NOSIG
過去の天気等 Google飛行場航空写真 Wunderground天気予報

過去48時間のMETAR

飛行場予報(TAF)
発表時間: 8/10 19:00 TAHT (8/11 05:00 UTC)
予報対象時間: 10日20時 TAHT ~ 12日2時 TAHT
風向・風速不定 2m/s
視程10km以上
少しの雲 雲底高度 610m
全天の4割程度の雲 雲底高度 1220m
全天の8割程度の雲 雲底高度 1830m
10日20時 TAHT ~ 11日8時 TAHT に 確率 40% で一時的に
視程3000m
天気現象しゅう雨
全天の4割程度の雲 雲底高度 550m
全天の8割程度の雲 雲底高度 1220m
11日8時 TAHT ~ 11日10時 TAHT に徐々に
風向・風速南南西 8m/s
TAF NTAA 110500Z 1106/1212 VRB03KT 9999 FEW020 SCT040 BKN060
PROB40 TEMPO 1106/1118 3000 SHRA SCT018 BKN040
BECMG 1118/1120 20015KT